sensor_id;sensor_type;location;lat;lon;timestamp;pressure;altitude;pressure_sealevel;temperature;humidity
14902;BME280;7542;49.078;9.194;2023-03-26T00:00:05;98149.66;;;26.86;34.64
14902;BME280;7542;49.078;9.194;2023-03-26T00:01:15;98144.00;;;26.87;34.64
14902;BME280;7542;49.078;9.194;2023-03-26T00:02:18;98133.53;;;26.86;34.47
14902;BME280;7542;49.078;9.194;2023-03-26T00:03:20;98138.41;;;26.84;34.47
14902;BME280;7542;49.078;9.194;2023-03-26T00:04:23;98137.59;;;26.83;34.36
14902;BME280;7542;49.078;9.194;2023-03-26T00:05:26;98127.63;;;26.84;34.39
14902;BME280;7542;49.078;9.194;2023-03-26T00:06:31;98131.13;;;26.84;34.35
14902;BME280;7542;49.078;9.194;2023-03-26T00:07:40;98141.88;;;26.84;34.44
14902;BME280;7542;49.078;9.194;2023-03-26T00:08:44;98142.16;;;26.83;34.55
14902;BME280;7542;49.078;9.194;2023-03-26T00:09:46;98126.84;;;26.83;34.59
14902;BME280;7542;49.078;9.194;2023-03-26T00:10:48;98131.13;;;26.84;34.65
14902;BME280;7542;49.078;9.194;2023-03-26T00:11:49;98117.16;;;26.82;34.71
14902;BME280;7542;49.078;9.194;2023-03-26T00:12:51;98120.94;;;26.81;34.33
14902;BME280;7542;49.078;9.194;2023-03-26T00:13:55;98130.88;;;26.81;34.63
14902;BME280;7542;49.078;9.194;2023-03-26T00:15:00;98126.59;;;26.80;34.43
14902;BME280;7542;49.078;9.194;2023-03-26T00:16:03;98127.38;;;26.80;34.38
14902;BME280;7542;49.078;9.194;2023-03-26T00:17:05;98119.31;;;26.80;34.31
14902;BME280;7542;49.078;9.194;2023-03-26T00:18:08;98123.09;;;26.79;34.46
14902;BME280;7542;49.078;9.194;2023-03-26T00:19:11;98127.38;;;26.80;34.32
14902;BME280;7542;49.078;9.194;2023-03-26T00:20:13;98120.13;;;26.81;34.60
14902;BME280;7542;49.078;9.194;2023-03-26T00:21:19;98119.06;;;26.82;34.46
14902;BME280;7542;49.078;9.194;2023-03-26T00:22:21;98122.00;;;26.80;34.29
14902;BME280;7542;49.078;9.194;2023-03-26T00:23:25;98122.28;;;26.79;34.31
14902;BME280;7542;49.078;9.194;2023-03-26T00:24:27;98122.00;;;26.80;34.23
14902;BME280;7542;49.078;9.194;2023-03-26T00:25:30;98122.59;;;26.77;34.56
14902;BME280;7542;49.078;9.194;2023-03-26T00:26:35;98117.41;;;26.81;34.48
14902;BME280;7542;49.078;9.194;2023-03-26T00:27:38;98120.41;;;26.79;34.34
14902;BME280;7542;49.078;9.194;2023-03-26T00:28:41;98117.22;;;26.77;34.64
14902;BME280;7542;49.078;9.194;2023-03-26T00:29:43;98122.00;;;26.80;34.17
14902;BME280;7542;49.078;9.194;2023-03-26T00:30:45;98126.06;;;26.78;34.51
14902;BME280;7542;49.078;9.194;2023-03-26T00:31:47;98126.88;;;26.78;34.23
14902;BME280;7542;49.078;9.194;2023-03-26T00:32:49;98121.50;;;26.78;34.34
14902;BME280;7542;49.078;9.194;2023-03-26T00:33:55;98116.41;;;26.77;34.24
14902;BME280;7542;49.078;9.194;2023-03-26T00:34:57;98118.81;;;26.78;34.26
14902;BME280;7542;49.078;9.194;2023-03-26T00:35:59;98121.50;;;26.78;34.38
14902;BME280;7542;49.078;9.194;2023-03-26T00:37:05;98121.50;;;26.78;34.36
14902;BME280;7542;49.078;9.194;2023-03-26T00:38:06;98122.88;;;26.76;34.06
14902;BME280;7542;49.078;9.194;2023-03-26T00:39:09;98123.16;;;26.74;34.52
14902;BME280;7542;49.078;9.194;2023-03-26T00:40:11;98107.25;;;26.78;34.54
14902;BME280;7542;49.078;9.194;2023-03-26T00:41:17;98113.44;;;26.78;34.63
14902;BME280;7542;49.078;9.194;2023-03-26T00:42:23;98117.22;;;26.77;34.44
14902;BME280;7542;49.078;9.194;2023-03-26T00:43:25;98118.28;;;26.76;34.21
14902;BME280;7542;49.078;9.194;2023-03-26T00:44:27;98122.59;;;26.77;34.48
14902;BME280;7542;49.078;9.194;2023-03-26T00:45:29;98115.91;;;26.75;34.43
14902;BME280;7542;49.078;9.194;2023-03-26T00:46:31;98113.22;;;26.75;34.56
14902;BME280;7542;49.078;9.194;2023-03-26T00:47:33;98110.81;;;26.73;34.34
14902;BME280;7542;49.078;9.194;2023-03-26T00:48:36;98115.91;;;26.75;34.62
14902;BME280;7542;49.078;9.194;2023-03-26T00:49:46;98110.50;;;26.75;34.50
14902;BME280;7542;49.078;9.194;2023-03-26T00:50:49;98108.91;;;26.74;34.48
14902;BME280;7542;49.078;9.194;2023-03-26T00:51:52;98106.22;;;26.74;34.36
14902;BME280;7542;49.078;9.194;2023-03-26T00:52:53;98105.44;;;26.73;34.51
14902;BME280;7542;49.078;9.194;2023-03-26T00:53:57;98108.13;;;26.73;34.22
14902;BME280;7542;49.078;9.194;2023-03-26T00:54:59;98102.75;;;26.73;34.45
14902;BME280;7542;49.078;9.194;2023-03-26T00:56:00;98104.63;;;26.73;34.52
14902;BME280;7542;49.078;9.194;2023-03-26T00:57:02;98103.03;;;26.72;34.53
14902;BME280;7542;49.078;9.194;2023-03-26T00:58:08;98101.94;;;26.73;34.62
14902;BME280;7542;49.078;9.194;2023-03-26T00:59:12;98091.97;;;26.73;34.43
14902;BME280;7542;49.078;9.194;2023-03-26T01:00:17;98089.59;;;26.72;34.40
14902;BME280;7542;49.078;9.194;2023-03-26T01:01:25;98090.88;;;26.74;34.29
14902;BME280;7542;49.078;9.194;2023-03-26T01:02:29;98082.81;;;26.74;34.23
14902;BME280;7542;49.078;9.194;2023-03-26T01:03:36;98090.88;;;26.74;34.23
14902;BME280;7542;49.078;9.194;2023-03-26T01:04:43;98085.50;;;26.74;34.61
14902;BME280;7542;49.078;9.194;2023-03-26T01:06:15;98073.59;;;26.80;34.08
14902;BME280;7542;49.078;9.194;2023-03-26T01:07:24;98076.34;;;26.75;34.54
14902;BME280;7542;49.078;9.194;2023-03-26T01:09:44;98076.94;;;26.72;34.55
14902;BME280;7542;49.078;9.194;2023-03-26T01:10:53;98062.16;;;26.70;34.34
14902;BME280;7542;49.078;9.194;2023-03-26T01:12:06;98061.88;;;26.71;34.52
14902;BME280;7542;49.078;9.194;2023-03-26T01:13:09;98066.22;;;26.67;34.45
14902;BME280;7542;49.078;9.194;2023-03-26T01:14:17;98060.28;;;26.70;34.22
14902;BME280;7542;49.078;9.194;2023-03-26T01:15:20;98066.22;;;26.67;34.18
14902;BME280;7542;49.078;9.194;2023-03-26T01:16:39;98058.09;;;26.72;34.36
14902;BME280;7542;49.078;9.194;2023-03-26T01:17:42;98052.78;;;26.67;34.19
14902;BME280;7542;49.078;9.194;2023-03-26T01:18:45;98048.78;;;26.65;34.50
14902;BME280;7542;49.078;9.194;2023-03-26T01:19:59;98048.69;;;26.70;34.17
14902;BME280;7542;49.078;9.194;2023-03-26T01:21:21;98049.00;;;26.68;34.40
14902;BME280;7542;49.078;9.194;2023-03-26T01:22:25;98044.69;;;26.67;34.36
14902;BME280;7542;49.078;9.194;2023-03-26T01:23:39;98043.63;;;26.68;34.18
14902;BME280;7542;49.078;9.194;2023-03-26T01:24:42;98044.19;;;26.65;34.13
14902;BME280;7542;49.078;9.194;2023-03-26T01:25:58;98043.63;;;26.68;34.42
14902;BME280;7542;49.078;9.194;2023-03-26T01:28:26;98043.09;;;26.66;34.29
14902;BME280;7542;49.078;9.194;2023-03-26T01:29:47;98046.31;;;26.68;34.40
14902;BME280;7542;49.078;9.194;2023-03-26T01:31:29;98042.75;;;26.73;34.04
14902;BME280;7542;49.078;9.194;2023-03-26T01:34:17;98030.47;;;26.67;34.13
14902;BME280;7542;49.078;9.194;2023-03-26T01:35:47;98026.38;;;26.69;34.11
14902;BME280;7542;49.078;9.194;2023-03-26T01:38:35;98017.31;;;26.65;34.35
14902;BME280;7542;49.078;9.194;2023-03-26T01:43:09;98014.91;;;26.64;34.48
14902;BME280;7542;49.078;9.194;2023-03-26T01:44:44;98015.72;;;26.64;34.32
14902;BME280;7542;49.078;9.194;2023-03-26T01:45:50;98012.03;;;26.55;34.26
14902;BME280;7542;49.078;9.194;2023-03-26T01:46:53;98012.63;;;26.52;34.61
14902;BME280;7542;49.078;9.194;2023-03-26T01:47:56;98014.22;;;26.53;34.40
14902;BME280;7542;49.078;9.194;2023-03-26T01:48:58;98007.53;;;26.50;34.41
14902;BME280;7542;49.078;9.194;2023-03-26T01:50:00;98009.44;;;26.50;34.39
14902;BME280;7542;49.078;9.194;2023-03-26T01:51:05;98008.34;;;26.51;34.28
14902;BME280;7542;49.078;9.194;2023-03-26T01:52:17;98011.25;;;26.54;34.51
14902;BME280;7542;49.078;9.194;2023-03-26T01:53:20;98011.84;;;26.51;34.38
14902;BME280;7542;49.078;9.194;2023-03-26T01:54:26;98012.63;;;26.52;34.49
14902;BME280;7542;49.078;9.194;2023-03-26T01:55:57;98005.00;;;26.59;34.43
14902;BME280;7542;49.078;9.194;2023-03-26T02:06:44;97999.19;;;26.52;34.33
14902;BME280;7542;49.078;9.194;2023-03-26T02:09:18;97988.44;;;26.52;34.11
14902;BME280;7542;49.078;9.194;2023-03-26T02:10:25;97982.53;;;26.50;34.44
14902;BME280;7542;49.078;9.194;2023-03-26T02:11:29;97988.47;;;26.47;34.16
14902;BME280;7542;49.078;9.194;2023-03-26T02:12:37;97979.31;;;26.48;34.39
14902;BME280;7542;49.078;9.194;2023-03-26T02:13:43;97979.06;;;26.49;34.42
14902;BME280;7542;49.078;9.194;2023-03-26T02:14:45;97977.16;;;26.50;34.25
14902;BME280;7542;49.078;9.194;2023-03-26T02:16:01;97975.50;;;26.54;34.56
14902;BME280;7542;49.078;9.194;2023-03-26T02:17:03;97976.59;;;26.53;34.73
14902;BME280;7542;49.078;9.194;2023-03-26T02:18:07;97968.81;;;26.51;34.67
14902;BME280;7542;49.078;9.194;2023-03-26T02:19:12;97964.22;;;26.52;34.62
14902;BME280;7542;49.078;9.194;2023-03-26T02:20:22;97960.16;;;26.54;34.53
14902;BME280;7542;49.078;9.194;2023-03-26T02:21:27;97960.16;;;26.54;34.55
14902;BME280;7542;49.078;9.194;2023-03-26T02:22:29;97952.69;;;26.51;34.27
14902;BME280;7542;49.078;9.194;2023-03-26T02:23:32;97953.47;;;26.52;34.38
14902;BME280;7542;49.078;9.194;2023-03-26T02:24:37;97949.69;;;26.53;34.52
14902;BME280;7542;49.078;9.194;2023-03-26T02:25:39;97948.91;;;26.52;34.51
14902;BME280;7542;49.078;9.194;2023-03-26T02:26:43;97944.81;;;26.55;34.62
14902;BME280;7542;49.078;9.194;2023-03-26T02:27:47;97944.81;;;26.55;34.57
14902;BME280;7542;49.078;9.194;2023-03-26T02:28:50;97936.75;;;26.55;34.21
14902;BME280;7542;49.078;9.194;2023-03-26T02:29:52;97936.75;;;26.55;34.43
14902;BME280;7542;49.078;9.194;2023-03-26T02:30:54;97933.78;;;26.56;34.26
14902;BME280;7542;49.078;9.194;2023-03-26T02:31:58;97928.41;;;26.56;34.26
14902;BME280;7542;49.078;9.194;2023-03-26T02:33:00;97923.59;;;26.53;34.64
14902;BME280;7542;49.078;9.194;2023-03-26T02:34:02;97934.88;;;26.55;34.63
14902;BME280;7542;49.078;9.194;2023-03-26T02:35:05;97932.19;;;26.55;34.26
14902;BME280;7542;49.078;9.194;2023-03-26T02:36:07;97934.28;;;26.58;34.34
14902;BME280;7542;49.078;9.194;2023-03-26T02:37:11;97929.19;;;26.57;34.33
14902;BME280;7542;49.078;9.194;2023-03-26T02:38:13;97927.31;;;26.57;34.53
14902;BME280;7542;49.078;9.194;2023-03-26T02:39:15;97929.19;;;26.57;34.55
14902;BME280;7542;49.078;9.194;2023-03-26T02:40:18;97925.72;;;26.56;34.35
14902;BME280;7542;49.078;9.194;2023-03-26T02:41:22;97925.41;;;26.58;34.19
14902;BME280;7542;49.078;9.194;2023-03-26T02:42:24;97922.47;;;26.60;34.05
14902;BME280;7542;49.078;9.194;2023-03-26T02:43:26;97921.63;;;26.59;34.22
14902;BME280;7542;49.078;9.194;2023-03-26T02:44:28;97915.47;;;26.58;34.55
14902;BME280;7542;49.078;9.194;2023-03-26T02:45:30;97921.13;;;26.57;34.38
14902;BME280;7542;49.078;9.194;2023-03-26T02:46:32;97920.03;;;26.58;34.16
14902;BME280;7542;49.078;9.194;2023-03-26T02:47:34;97919.78;;;26.60;34.24
14902;BME280;7542;49.078;9.194;2023-03-26T02:48:36;97927.00;;;26.59;34.41
14902;BME280;7542;49.078;9.194;2023-03-26T02:49:38;97921.63;;;26.59;34.23
14902;BME280;7542;49.078;9.194;2023-03-26T02:50:40;97917.09;;;26.60;34.03
14902;BME280;7542;49.078;9.194;2023-03-26T02:51:43;97920.56;;;26.60;34.42
14902;BME280;7542;49.078;9.194;2023-03-26T02:52:44;97920.84;;;26.58;34.13
14902;BME280;7542;49.078;9.194;2023-03-26T02:53:49;97918.16;;;26.58;34.25
14902;BME280;7542;49.078;9.194;2023-03-26T02:54:54;97914.41;;;26.60;33.94
14902;BME280;7542;49.078;9.194;2023-03-26T02:55:58;97915.19;;;26.60;33.85
14902;BME280;7542;49.078;9.194;2023-03-26T02:57:00;97913.31;;;26.61;33.79
14902;BME280;7542;49.078;9.194;2023-03-26T02:58:02;97910.88;;;26.59;34.26
14902;BME280;7542;49.078;9.194;2023-03-26T02:59:04;97909.81;;;26.60;34.04
14902;BME280;7542;49.078;9.194;2023-03-26T03:00:07;97900.13;;;26.59;34.22
14902;BME280;7542;49.078;9.194;2023-03-26T03:01:09;97909.28;;;26.58;33.96
14902;BME280;7542;49.078;9.194;2023-03-26T03:02:11;97906.59;;;26.58;33.99
14902;BME280;7542;49.078;9.194;2023-03-26T03:03:14;97909.81;;;26.60;33.80
14902;BME280;7542;49.078;9.194;2023-03-26T03:04:18;97900.13;;;26.59;34.12
14902;BME280;7542;49.078;9.194;2023-03-26T03:05:20;97897.44;;;26.59;34.05
14902;BME280;7542;49.078;9.194;2023-03-26T03:06:26;97893.16;;;26.58;33.94
14902;BME280;7542;49.078;9.194;2023-03-26T03:07:31;97884.81;;;26.60;33.76
14902;BME280;7542;49.078;9.194;2023-03-26T03:08:33;97888.56;;;26.58;34.19
14902;BME280;7542;49.078;9.194;2023-03-26T03:09:35;97890.47;;;26.58;33.97
14902;BME280;7542;49.078;9.194;2023-03-26T03:10:37;97880.00;;;26.56;34.16
14902;BME280;7542;49.078;9.194;2023-03-26T03:11:40;97888.88;;;26.57;33.80
14902;BME280;7542;49.078;9.194;2023-03-26T03:12:42;97886.19;;;26.57;34.14
14902;BME280;7542;49.078;9.194;2023-03-26T03:13:44;97881.88;;;26.56;34.10
14902;BME280;7542;49.078;9.194;2023-03-26T03:14:46;97881.88;;;26.56;33.86
14902;BME280;7542;49.078;9.194;2023-03-26T03:15:48;97890.47;;;26.58;33.94
14902;BME280;7542;49.078;9.194;2023-03-26T03:16:50;97891.56;;;26.57;33.96
14902;BME280;7542;49.078;9.194;2023-03-26T03:17:52;97880.81;;;26.57;34.06
14902;BME280;7542;49.078;9.194;2023-03-26T03:18:54;97879.19;;;26.56;34.19
14902;BME280;7542;49.078;9.194;2023-03-26T03:19:59;97880.81;;;26.57;34.07
14902;BME280;7542;49.078;9.194;2023-03-26T03:21:02;97883.78;;;26.55;34.09
14902;BME280;7542;49.078;9.194;2023-03-26T03:22:05;97877.59;;;26.55;34.15
14902;BME280;7542;49.078;9.194;2023-03-26T03:23:06;97875.22;;;26.53;33.90
14902;BME280;7542;49.078;9.194;2023-03-26T03:24:09;97878.41;;;26.55;33.98
14902;BME280;7542;49.078;9.194;2023-03-26T03:25:12;97885.97;;;26.53;34.07
14902;BME280;7542;49.078;9.194;2023-03-26T03:26:20;97882.97;;;26.55;33.96
14902;BME280;7542;49.078;9.194;2023-03-26T03:27:28;97881.09;;;26.55;33.88
14902;BME280;7542;49.078;9.194;2023-03-26T03:28:30;97884.06;;;26.54;33.96
14902;BME280;7542;49.078;9.194;2023-03-26T03:29:32;97874.13;;;26.54;34.10
14902;BME280;7542;49.078;9.194;2023-03-26T03:30:34;97876.81;;;26.54;34.10
14902;BME280;7542;49.078;9.194;2023-03-26T03:31:36;97875.22;;;26.53;33.90
14902;BME280;7542;49.078;9.194;2023-03-26T03:32:38;97872.03;;;26.51;33.67
14902;BME280;7542;49.078;9.194;2023-03-26T03:33:40;97875.22;;;26.53;34.03
14902;BME280;7542;49.078;9.194;2023-03-26T03:34:43;97873.31;;;26.54;33.80
14902;BME280;7542;49.078;9.194;2023-03-26T03:35:47;97869.53;;;26.55;34.01
14902;BME280;7542;49.078;9.194;2023-03-26T03:36:50;97862.88;;;26.52;33.75
14902;BME280;7542;49.078;9.194;2023-03-26T03:37:52;97869.03;;;26.53;33.89
14902;BME280;7542;49.078;9.194;2023-03-26T03:38:54;97865.84;;;26.51;34.02
14902;BME280;7542;49.078;9.194;2023-03-26T03:40:04;97862.06;;;26.52;33.65
14902;BME280;7542;49.078;9.194;2023-03-26T03:41:09;97863.66;;;26.53;33.98
14902;BME280;7542;49.078;9.194;2023-03-26T03:42:11;97854.50;;;26.54;33.58
14902;BME280;7542;49.078;9.194;2023-03-26T03:43:13;97852.09;;;26.52;33.90
14902;BME280;7542;49.078;9.194;2023-03-26T03:44:15;97852.09;;;26.52;33.71
14902;BME280;7542;49.078;9.194;2023-03-26T03:45:17;97848.63;;;26.52;33.83
14902;BME280;7542;49.078;9.194;2023-03-26T03:46:19;97849.41;;;26.52;33.95
14902;BME280;7542;49.078;9.194;2023-03-26T03:47:21;97847.03;;;26.51;33.86
14902;BME280;7542;49.078;9.194;2023-03-26T03:48:23;97845.94;;;26.52;33.94
14902;BME280;7542;49.078;9.194;2023-03-26T03:49:26;97843.53;;;26.50;33.74
14902;BME280;7542;49.078;9.194;2023-03-26T03:50:28;97837.38;;;26.50;33.84
14902;BME280;7542;49.078;9.194;2023-03-26T03:51:29;97834.69;;;26.50;33.97
14902;BME280;7542;49.078;9.194;2023-03-26T03:52:32;97835.47;;;26.50;33.97
14902;BME280;7542;49.078;9.194;2023-03-26T03:53:34;97838.47;;;26.49;33.83
14902;BME280;7542;49.078;9.194;2023-03-26T03:54:38;97834.69;;;26.50;33.85
14902;BME280;7542;49.078;9.194;2023-03-26T03:55:40;97832.00;;;26.50;33.93
14902;BME280;7542;49.078;9.194;2023-03-26T03:56:42;97822.31;;;26.49;33.79
14902;BME280;7542;49.078;9.194;2023-03-26T03:57:46;97827.41;;;26.50;33.63
14902;BME280;7542;49.078;9.194;2023-03-26T03:58:48;97830.91;;;26.51;33.65
14902;BME280;7542;49.078;9.194;2023-03-26T03:59:50;97825.81;;;26.49;33.81
14902;BME280;7542;49.078;9.194;2023-03-26T04:00:53;97828.50;;;26.49;33.92
14902;BME280;7542;49.078;9.194;2023-03-26T04:02:01;97823.13;;;26.49;33.57
14902;BME280;7542;49.078;9.194;2023-03-26T04:03:03;97818.00;;;26.48;33.81
14902;BME280;7542;49.078;9.194;2023-03-26T04:04:07;97818.53;;;26.50;33.66
14902;BME280;7542;49.078;9.194;2023-03-26T04:05:09;97806.19;;;26.49;33.56
14902;BME280;7542;49.078;9.194;2023-03-26T04:06:12;97800.00;;;26.48;33.37
14902;BME280;7542;49.078;9.194;2023-03-26T04:07:15;97799.19;;;26.48;33.74
14902;BME280;7542;49.078;9.194;2023-03-26T04:08:17;97801.09;;;26.47;33.79
14902;BME280;7542;49.078;9.194;2023-03-26T04:09:19;97800.28;;;26.47;33.72
14902;BME280;7542;49.078;9.194;2023-03-26T04:10:21;97793.81;;;26.48;33.54
14902;BME280;7542;49.078;9.194;2023-03-26T04:11:23;97798.69;;;26.46;33.56
14902;BME280;7542;49.078;9.194;2023-03-26T04:12:29;97806.47;;;26.47;33.88
14902;BME280;7542;49.078;9.194;2023-03-26T04:13:32;97800.09;;;26.43;33.52
14902;BME280;7542;49.078;9.194;2023-03-26T04:14:33;97809.75;;;26.44;33.57
14902;BME280;7542;49.078;9.194;2023-03-26T04:15:36;97800.09;;;26.43;33.90
14902;BME280;7542;49.078;9.194;2023-03-26T04:16:38;97798.69;;;26.46;33.96
14902;BME280;7542;49.078;9.194;2023-03-26T04:17:40;97798.19;;;26.44;33.60
14902;BME280;7542;49.078;9.194;2023-03-26T04:18:43;97800.88;;;26.44;33.50
14902;BME280;7542;49.078;9.194;2023-03-26T04:19:49;97798.50;;;26.42;33.75
14902;BME280;7542;49.078;9.194;2023-03-26T04:20:51;97802.78;;;26.43;33.90
14902;BME280;7542;49.078;9.194;2023-03-26T04:21:52;97801.97;;;26.43;33.61
14902;BME280;7542;49.078;9.194;2023-03-26T04:22:55;97790.13;;;26.44;34.06
14902;BME280;7542;49.078;9.194;2023-03-26T04:23:56;97793.91;;;26.43;33.82
14902;BME280;7542;49.078;9.194;2023-03-26T04:24:58;97795.00;;;26.42;33.73
14902;BME280;7542;49.078;9.194;2023-03-26T04:26:06;97799.28;;;26.43;33.97
14902;BME280;7542;49.078;9.194;2023-03-26T04:27:14;97790.13;;;26.44;33.80
14902;BME280;7542;49.078;9.194;2023-03-26T04:29:27;97782.34;;;26.42;33.92
14902;BME280;7542;49.078;9.194;2023-03-26T04:30:34;97782.66;;;26.41;33.93
14902;BME280;7542;49.078;9.194;2023-03-26T04:31:36;97779.66;;;26.42;34.01
14902;BME280;7542;49.078;9.194;2023-03-26T04:32:38;97783.16;;;26.43;34.03
14902;BME280;7542;49.078;9.194;2023-03-26T04:33:44;97774.78;;;26.44;33.65
14902;BME280;7542;49.078;9.194;2023-03-26T04:34:49;97770.00;;;26.41;34.02
14902;BME280;7542;49.078;9.194;2023-03-26T04:35:51;97765.72;;;26.40;33.92
14902;BME280;7542;49.078;9.194;2023-03-26T04:36:53;97756.88;;;26.40;33.69
14902;BME280;7542;49.078;9.194;2023-03-26T04:37:55;97760.06;;;26.42;34.04
14902;BME280;7542;49.078;9.194;2023-03-26T04:39:01;97757.88;;;26.44;33.71
14902;BME280;7542;49.078;9.194;2023-03-26T04:40:15;97749.81;;;26.44;33.95
14902;BME280;7542;49.078;9.194;2023-03-26T04:41:18;97756.28;;;26.43;33.92
14902;BME280;7542;49.078;9.194;2023-03-26T04:42:20;97748.50;;;26.41;33.88
14902;BME280;7542;49.078;9.194;2023-03-26T04:43:22;97755.47;;;26.42;34.13
14902;BME280;7542;49.078;9.194;2023-03-26T04:44:24;97748.50;;;26.41;33.93
14902;BME280;7542;49.078;9.194;2023-03-26T04:45:27;97750.69;;;26.39;34.23
14902;BME280;7542;49.078;9.194;2023-03-26T04:46:30;97746.31;;;26.43;34.06
14902;BME280;7542;49.078;9.194;2023-03-26T04:47:34;97744.44;;;26.44;34.19
14902;BME280;7542;49.078;9.194;2023-03-26T04:48:37;97739.84;;;26.44;34.19
14902;BME280;7542;49.078;9.194;2023-03-26T04:49:39;97746.03;;;26.45;34.10
14902;BME280;7542;49.078;9.194;2023-03-26T04:50:44;97731.00;;;26.44;34.23
14902;BME280;7542;49.078;9.194;2023-03-26T04:51:46;97729.38;;;26.43;34.50
14902;BME280;7542;49.078;9.194;2023-03-26T04:52:48;97728.59;;;26.42;34.04
14902;BME280;7542;49.078;9.194;2023-03-26T04:53:57;97725.81;;;26.47;34.20
14902;BME280;7542;49.078;9.194;2023-03-26T04:55:00;97711.66;;;26.42;34.31
14902;BME280;7542;49.078;9.194;2023-03-26T04:57:27;97704.03;;;26.49;33.86
14902;BME280;7542;49.078;9.194;2023-03-26T04:58:31;97706.78;;;26.44;34.13
14902;BME280;7542;49.078;9.194;2023-03-26T04:59:34;97706.50;;;26.45;34.24
14902;BME280;7542;49.078;9.194;2023-03-26T05:00:36;97706.50;;;26.45;34.03
14902;BME280;7542;49.078;9.194;2023-03-26T05:01:40;97691.75;;;26.43;34.05
14902;BME280;7542;49.078;9.194;2023-03-26T05:02:42;97698.44;;;26.45;34.09
14902;BME280;7542;49.078;9.194;2023-03-26T05:03:44;97691.16;;;26.46;34.21
14902;BME280;7542;49.078;9.194;2023-03-26T05:04:46;97697.34;;;26.46;34.18
14902;BME280;7542;49.078;9.194;2023-03-26T05:05:50;97690.88;;;26.47;34.08
14902;BME280;7542;49.078;9.194;2023-03-26T05:06:52;97685.78;;;26.46;34.21
14902;BME280;7542;49.078;9.194;2023-03-26T05:07:55;97688.47;;;26.46;34.36
14902;BME280;7542;49.078;9.194;2023-03-26T05:08:57;97683.59;;;26.48;34.24
14902;BME280;7542;49.078;9.194;2023-03-26T05:09:59;97680.09;;;26.47;34.17
14902;BME280;7542;49.078;9.194;2023-03-26T05:11:04;97691.66;;;26.48;34.33
14902;BME280;7542;49.078;9.194;2023-03-26T05:12:12;97676.31;;;26.48;33.93
14902;BME280;7542;49.078;9.194;2023-03-26T05:13:13;97682.78;;;26.47;34.16
14902;BME280;7542;49.078;9.194;2023-03-26T05:14:16;97687.38;;;26.47;34.11
14902;BME280;7542;49.078;9.194;2023-03-26T05:15:18;97690.59;;;26.49;34.31
14902;BME280;7542;49.078;9.194;2023-03-26T05:16:20;97694.88;;;26.50;34.16
14902;BME280;7542;49.078;9.194;2023-03-26T05:17:24;97691.41;;;26.49;33.88
14902;BME280;7542;49.078;9.194;2023-03-26T05:18:26;97698.34;;;26.50;33.92
14902;BME280;7542;49.078;9.194;2023-03-26T05:19:28;97695.69;;;26.50;33.81
14902;BME280;7542;49.078;9.194;2023-03-26T05:20:30;97691.66;;;26.48;33.96
14902;BME280;7542;49.078;9.194;2023-03-26T05:21:32;97691.41;;;26.49;33.88
14902;BME280;7542;49.078;9.194;2023-03-26T05:22:34;97690.59;;;26.49;33.81
14902;BME280;7542;49.078;9.194;2023-03-26T05:23:38;97686.81;;;26.50;33.65
14902;BME280;7542;49.078;9.194;2023-03-26T05:24:41;97693.78;;;26.51;33.92
14902;BME280;7542;49.078;9.194;2023-03-26T05:25:43;97686.50;;;26.51;33.64
14902;BME280;7542;49.078;9.194;2023-03-26T05:26:44;97687.59;;;26.50;34.00
14902;BME280;7542;49.078;9.194;2023-03-26T05:27:47;97686.50;;;26.51;33.84
14902;BME280;7542;49.078;9.194;2023-03-26T05:28:49;97684.63;;;26.52;34.03
14902;BME280;7542;49.078;9.194;2023-03-26T05:30:00;97681.63;;;26.53;33.78
14902;BME280;7542;49.078;9.194;2023-03-26T05:31:02;97685.41;;;26.52;33.84
14902;BME280;7542;49.078;9.194;2023-03-26T05:32:05;97678.16;;;26.53;33.78
14902;BME280;7542;49.078;9.194;2023-03-26T05:33:07;97677.84;;;26.54;33.48
14902;BME280;7542;49.078;9.194;2023-03-26T05:34:10;97674.66;;;26.52;33.67
14902;BME280;7542;49.078;9.194;2023-03-26T05:35:11;97675.47;;;26.53;33.66
14902;BME280;7542;49.078;9.194;2023-03-26T05:36:15;97661.72;;;26.54;33.55
14902;BME280;7542;49.078;9.194;2023-03-26T05:37:17;97665.50;;;26.53;33.66
14902;BME280;7542;49.078;9.194;2023-03-26T05:38:21;97662.00;;;26.53;33.23
14902;BME280;7542;49.078;9.194;2023-03-26T05:39:22;97666.28;;;26.54;33.33
14902;BME280;7542;49.078;9.194;2023-03-26T05:40:27;97660.91;;;26.54;33.42
14902;BME280;7542;49.078;9.194;2023-03-26T05:41:29;97662.81;;;26.53;33.60
14902;BME280;7542;49.078;9.194;2023-03-26T05:42:31;97662.00;;;26.53;33.43
14902;BME280;7542;49.078;9.194;2023-03-26T05:43:33;97662.50;;;26.55;33.62
14902;BME280;7542;49.078;9.194;2023-03-26T05:44:35;97663.59;;;26.54;33.54
14902;BME280;7542;49.078;9.194;2023-03-26T05:45:37;97662.50;;;26.55;33.51
14902;BME280;7542;49.078;9.194;2023-03-26T05:46:39;97667.88;;;26.55;33.38
14902;BME280;7542;49.078;9.194;2023-03-26T05:47:41;97656.34;;;26.54;33.49
14902;BME280;7542;49.078;9.194;2023-03-26T05:48:43;97662.22;;;26.56;33.52
14902;BME280;7542;49.078;9.194;2023-03-26T05:49:46;97652.56;;;26.55;33.51
14902;BME280;7542;49.078;9.194;2023-03-26T05:50:50;97644.78;;;26.54;33.58
14902;BME280;7542;49.078;9.194;2023-03-26T05:51:52;97648.28;;;26.54;33.51
14902;BME280;7542;49.078;9.194;2023-03-26T05:52:56;97649.88;;;26.55;33.29
14902;BME280;7542;49.078;9.194;2023-03-26T05:53:58;97650.97;;;26.54;33.51
14902;BME280;7542;49.078;9.194;2023-03-26T05:54:59;97652.25;;;26.57;33.51
14902;BME280;7542;49.078;9.194;2023-03-26T05:56:01;97650.16;;;26.54;33.42
14902;BME280;7542;49.078;9.194;2023-03-26T05:57:04;97642.59;;;26.56;33.61
14902;BME280;7542;49.078;9.194;2023-03-26T05:58:06;97638.31;;;26.55;33.30
14902;BME280;7542;49.078;9.194;2023-03-26T05:59:08;97639.41;;;26.54;33.53
14902;BME280;7542;49.078;9.194;2023-03-26T06:00:11;97634.53;;;26.56;33.60
14902;BME280;7542;49.078;9.194;2023-03-26T06:01:13;97634.53;;;26.56;33.79
14902;BME280;7542;49.078;9.194;2023-03-26T06:02:19;97628.06;;;26.57;33.67
14902;BME280;7542;49.078;9.194;2023-03-26T06:03:21;97626.47;;;26.56;33.63
14902;BME280;7542;49.078;9.194;2023-03-26T06:04:23;97620.00;;;26.57;33.58
14902;BME280;7542;49.078;9.194;2023-03-26T06:05:26;97616.50;;;26.56;33.66
14902;BME280;7542;49.078;9.194;2023-03-26T06:06:33;97616.81;;;26.55;33.39